nws-alerts: Checking more than four warning/county codes can delay the loading of your pages. You should use a cron job to get the data.
EllijayWeather Historical Data
Daily Summary for February 20, 2019 Units:  English    Metric   Both
Daily Weekly Monthly Yearly
  High: Low: Average:
Temperature: 50.0 °F 37.0 °F 44.4 °F
Dew Point: 50.0 °F 35.0 °F 42.5 °F
Humidity: 100% 88% 93%
Wind Speed: 15mph 0mph 4.5mph
Wind Gust: 19mph - -
Wind- - SE
Pressure: 30.3 in 30.0 in -
Precipitation: 1.560 in    
 
 
Tabular Data for February 20, 2019
Time Temperature Dew Point Pressure Wind Wind Speed Wind Gust Humidity Rainfall Rate (Hourly)
00:04 38.0 °F 35.0 °F 30.3 in ESE 15 mph 16 mph 92% 0.000 in
00:09 37.0 °F 35.0 °F 30.3 in ESE 13 mph 15 mph 92% 0.000 in
00:14 37.0 °F 35.0 °F 30.3 in ESE 6 mph 13 mph 92% 0.000 in
00:19 37.0 °F 35.0 °F 30.3 in ESE 7 mph 11 mph 92% 0.000 in
00:24 37.0 °F 35.0 °F 30.3 in ESE 6 mph 15 mph 92% 0.000 in
00:29 38.0 °F 36.0 °F 30.3 in ESE 5 mph 11 mph 93% 0.000 in
00:34 38.0 °F 35.0 °F 30.3 in ESE 12 mph 16 mph 92% 0.000 in
00:39 38.0 °F 35.0 °F 30.3 in ESE 10 mph 16 mph 90% 0.000 in
00:44 38.0 °F 35.0 °F 30.3 in SE 7 mph 9 mph 91% 0.000 in
00:49 38.0 °F 35.0 °F 30.3 in ESE 11 mph 14 mph 91% 0.000 in
00:54 38.0 °F 35.0 °F 30.3 in SE 11 mph 14 mph 91% 0.000 in
00:59 38.0 °F 35.0 °F 30.3 in ESE 9 mph 13 mph 91% 0.000 in
01:04 38.0 °F 35.0 °F 30.3 in SE 11 mph 13 mph 91% 0.000 in
01:09 38.0 °F 35.0 °F 30.3 in SE 8 mph 13 mph 91% 0.000 in
01:14 38.0 °F 35.0 °F 30.3 in SE 9 mph 12 mph 91% 0.000 in
01:19 38.0 °F 35.0 °F 30.3 in ESE 7 mph 11 mph 91% 0.000 in
01:24 38.0 °F 36.0 °F 30.3 in SE 12 mph 12 mph 91% 0.000 in
01:29 38.0 °F 35.0 °F 30.3 in ESE 9 mph 13 mph 90% 0.000 in
01:34 38.0 °F 36.0 °F 30.3 in ESE 7 mph 11 mph 90% 0.000 in
01:39 39.0 °F 36.0 °F 30.3 in SE 8 mph 9 mph 91% 0.000 in
01:44 39.0 °F 36.0 °F 30.3 in SE 8 mph 12 mph 90% 0.000 in
01:49 39.0 °F 36.0 °F 30.3 in SE 8 mph 12 mph 91% 0.000 in
01:54 39.0 °F 37.0 °F 30.3 in SE 7 mph 11 mph 91% 0.000 in
01:59 39.0 °F 36.0 °F 30.3 in SE 9 mph 11 mph 90% 0.000 in
02:04 39.0 °F 36.0 °F 30.3 in SE 7 mph 12 mph 90% 0.000 in
02:09 39.0 °F 37.0 °F 30.3 in SE 6 mph 10 mph 91% 0.000 in
02:14 39.0 °F 37.0 °F 30.3 in SE 8 mph 9 mph 91% 0.000 in
02:19 39.0 °F 36.0 °F 30.3 in SSE 9 mph 11 mph 90% 0.000 in
02:24 39.0 °F 36.0 °F 30.3 in ESE 12 mph 19 mph 91% 0.000 in
02:29 39.0 °F 36.0 °F 30.3 in ESE 12 mph 19 mph 89% 0.000 in
02:34 39.0 °F 36.0 °F 30.3 in ESE 11 mph 14 mph 89% 0.000 in
02:39 39.0 °F 36.0 °F 30.3 in SE 6 mph 12 mph 89% 0.000 in
02:44 39.0 °F 36.0 °F 30.3 in SE 13 mph 14 mph 89% 0.000 in
02:49 39.0 °F 36.0 °F 30.3 in SE 7 mph 13 mph 90% 0.000 in
02:54 39.0 °F 36.0 °F 30.3 in SE 9 mph 9 mph 90% 0.000 in
02:59 39.0 °F 36.0 °F 30.3 in SE 9 mph 13 mph 90% 0.000 in
03:04 39.0 °F 36.0 °F 30.3 in ESE 5 mph 8 mph 90% 0.000 in
03:09 39.0 °F 36.0 °F 30.3 in SE 6 mph 8 mph 91% 0.000 in
03:14 39.0 °F 37.0 °F 30.3 in ESE 5 mph 7 mph 92% 0.000 in
03:19 39.0 °F 36.0 °F 30.3 in SE 7 mph 11 mph 92% 0.000 in
03:24 39.0 °F 36.0 °F 30.3 in SE 2 mph 6 mph 92% 0.000 in
03:29 39.0 °F 37.0 °F 30.3 in SE 8 mph 13 mph 92% 0.000 in
03:34 39.0 °F 36.0 °F 30.3 in ESE 4 mph 9 mph 91% 0.000 in
03:39 39.0 °F 36.0 °F 30.3 in SE 8 mph 8 mph 91% 0.000 in
03:44 39.0 °F 37.0 °F 30.3 in ESE 6 mph 8 mph 91% 0.010 in
03:49 39.0 °F 37.0 °F 30.3 in SE 8 mph 9 mph 92% 0.010 in
03:54 39.0 °F 36.0 °F 30.3 in ESE 7 mph 11 mph 91% 0.010 in
03:59 39.0 °F 36.0 °F 30.2 in SE 6 mph 11 mph 91% 0.010 in
04:04 39.0 °F 36.0 °F 30.2 in SE 11 mph 12 mph 91% 0.010 in
04:09 39.0 °F 36.0 °F 30.2 in ESE 7 mph 12 mph 90% 0.010 in
04:14 39.0 °F 36.0 °F 30.2 in ESE 9 mph 13 mph 90% 0.010 in
04:19 39.0 °F 36.0 °F 30.2 in SE 7 mph 13 mph 90% 0.010 in
04:24 39.0 °F 36.0 °F 30.2 in ESE 11 mph 12 mph 90% 0.010 in
04:29 39.0 °F 36.0 °F 30.2 in SE 11 mph 12 mph 90% 0.010 in
04:34 39.0 °F 36.0 °F 30.2 in SE 6 mph 11 mph 90% 0.010 in
04:39 39.0 °F 36.0 °F 30.2 in SE 9 mph 11 mph 90% 0.010 in
04:44 39.0 °F 36.0 °F 30.2 in ESE 8 mph 10 mph 90% 0.010 in
04:49 39.0 °F 36.0 °F 30.2 in SE 6 mph 10 mph 90% 0.000 in
04:54 39.0 °F 36.0 °F 30.2 in ESE 13 mph 13 mph 90% 0.000 in
04:59 39.0 °F 36.0 °F 30.2 in ESE 12 mph 14 mph 89% 0.000 in
05:04 39.0 °F 36.0 °F 30.2 in ESE 11 mph 13 mph 90% 0.000 in
05:09 39.0 °F 36.0 °F 30.2 in ESE 6 mph 11 mph 90% 0.000 in
05:14 39.0 °F 36.0 °F 30.2 in SE 5 mph 9 mph 90% 0.000 in
05:19 39.0 °F 36.0 °F 30.2 in ESE 11 mph 11 mph 90% 0.000 in
05:24 39.0 °F 36.0 °F 30.2 in ESE 15 mph 15 mph 89% 0.000 in
05:29 39.0 °F 36.0 °F 30.2 in ESE 6 mph 9 mph 89% 0.000 in
05:34 39.0 °F 36.0 °F 30.2 in SE 10 mph 11 mph 89% 0.000 in
05:39 39.0 °F 36.0 °F 30.2 in ESE 8 mph 11 mph 89% 0.000 in
05:44 39.0 °F 36.0 °F 30.2 in SE 6 mph 12 mph 89% 0.000 in
05:49 39.0 °F 36.0 °F 30.2 in ESE 11 mph 14 mph 89% 0.000 in
05:54 39.0 °F 36.0 °F 30.2 in ESE 6 mph 11 mph 90% 0.000 in
05:59 39.0 °F 36.0 °F 30.2 in SE 7 mph 7 mph 90% 0.000 in
06:04 39.0 °F 36.0 °F 30.2 in SSE 9 mph 9 mph 90% 0.000 in
06:09 39.0 °F 37.0 °F 30.2 in SE 8 mph 11 mph 90% 0.000 in
06:14 39.0 °F 37.0 °F 30.2 in SSE 6 mph 8 mph 90% 0.000 in
06:19 39.0 °F 37.0 °F 30.2 in SE 7 mph 9 mph 90% 0.000 in
06:24 40.0 °F 37.0 °F 30.2 in ESE 7 mph 12 mph 90% 0.000 in
06:29 40.0 °F 37.0 °F 30.2 in ESE 4 mph 8 mph 90% 0.000 in
06:34 40.0 °F 38.0 °F 30.2 in ESE 7 mph 9 mph 91% 0.000 in
06:39 40.0 °F 38.0 °F 30.2 in SE 5 mph 7 mph 91% 0.000 in
06:44 40.0 °F 38.0 °F 30.2 in SE 4 mph 7 mph 91% 0.000 in
06:49 40.0 °F 38.0 °F 30.2 in SE 8 mph 9 mph 91% 0.000 in
06:54 40.0 °F 38.0 °F 30.2 in ESE 6 mph 9 mph 91% 0.000 in
06:59 41.0 °F 38.0 °F 30.2 in SE 8 mph 14 mph 92% 0.000 in
07:04 41.0 °F 38.0 °F 30.2 in SE 5 mph 9 mph 91% 0.000 in
07:09 41.0 °F 38.0 °F 30.2 in ESE 8 mph 10 mph 91% 0.000 in
07:14 41.0 °F 38.0 °F 30.2 in ESE 6 mph 10 mph 91% 0.000 in
07:19 41.0 °F 39.0 °F 30.2 in ESE 5 mph 8 mph 91% 0.000 in
07:24 41.0 °F 39.0 °F 30.2 in SE 4 mph 6 mph 91% 0.000 in
07:29 41.0 °F 39.0 °F 30.2 in ESE 8 mph 8 mph 91% 0.000 in
07:34 41.0 °F 39.0 °F 30.2 in ESE 6 mph 7 mph 91% 0.000 in
07:39 42.0 °F 39.0 °F 30.2 in SE 5 mph 6 mph 91% 0.000 in
07:44 42.0 °F 39.0 °F 30.2 in ESE 6 mph 6 mph 91% 0.000 in
07:49 42.0 °F 39.0 °F 30.2 in ESE 5 mph 11 mph 91% 0.000 in
07:54 42.0 °F 39.0 °F 30.2 in SE 5 mph 7 mph 91% 0.000 in
07:59 42.0 °F 39.0 °F 30.2 in SE 6 mph 7 mph 91% 0.000 in
08:04 42.0 °F 40.0 °F 30.2 in ESE 4 mph 7 mph 91% 0.000 in
08:09 42.0 °F 40.0 °F 30.2 in ESE 6 mph 7 mph 91% 0.000 in
08:14 42.0 °F 40.0 °F 30.2 in SE 5 mph 6 mph 90% 0.000 in
08:19 42.0 °F 40.0 °F 30.2 in SE 6 mph 6 mph 90% 0.000 in
08:24 42.0 °F 40.0 °F 30.2 in SE 5 mph 8 mph 90% 0.000 in
08:29 42.0 °F 40.0 °F 30.2 in SE 6 mph 9 mph 90% 0.000 in
08:34 42.0 °F 40.0 °F 30.2 in ESE 8 mph 10 mph 90% 0.000 in
08:39 42.0 °F 40.0 °F 30.2 in SE 5 mph 10 mph 90% 0.000 in
08:44 42.0 °F 40.0 °F 30.2 in ESE 5 mph 10 mph 90% 0.000 in
08:49 43.0 °F 40.0 °F 30.2 in SE 7 mph 8 mph 90% 0.000 in
08:54 43.0 °F 40.0 °F 30.2 in SE 5 mph 8 mph 90% 0.000 in
08:59 43.0 °F 40.0 °F 30.2 in SE 6 mph 8 mph 90% 0.000 in
09:04 43.0 °F 40.0 °F 30.2 in SE 6 mph 8 mph 90% 0.000 in
09:09 43.0 °F 40.0 °F 30.2 in SE 4 mph 6 mph 90% 0.000 in
09:14 43.0 °F 40.0 °F 30.2 in ESE 4 mph 7 mph 90% 0.000 in
09:19 43.0 °F 40.0 °F 30.2 in SE 5 mph 7 mph 90% 0.000 in
09:24 43.0 °F 41.0 °F 30.2 in SE 7 mph 11 mph 91% 0.000 in
09:29 43.0 °F 41.0 °F 30.2 in ESE 5 mph 7 mph 90% 0.000 in
09:34 43.0 °F 41.0 °F 30.2 in SE 6 mph 8 mph 90% 0.000 in
09:39 43.0 °F 41.0 °F 30.2 in SE 5 mph 8 mph 90% 0.000 in
09:44 43.0 °F 41.0 °F 30.2 in SE 4 mph 6 mph 90% 0.000 in
09:49 43.0 °F 41.0 °F 30.2 in ESE 7 mph 8 mph 90% 0.000 in
09:54 43.0 °F 41.0 °F 30.2 in SE 7 mph 9 mph 90% 0.000 in
09:59 43.0 °F 41.0 °F 30.2 in ESE 5 mph 18 mph 90% 0.000 in
10:04 43.0 °F 41.0 °F 30.2 in SE 5 mph 7 mph 90% 0.000 in
10:09 43.0 °F 41.0 °F 30.2 in ESE 12 mph 12 mph 90% 0.000 in
10:14 43.0 °F 41.0 °F 30.2 in SE 12 mph 13 mph 91% 0.000 in
10:19 44.0 °F 41.0 °F 30.2 in SE 5 mph 7 mph 91% 0.000 in
10:24 44.0 °F 41.0 °F 30.2 in ESE 6 mph 7 mph 91% 0.000 in
10:29 44.0 °F 41.0 °F 30.2 in SE 6 mph 8 mph 91% 0.000 in
10:34 44.0 °F 41.0 °F 30.2 in SE 5 mph 6 mph 91% 0.000 in
10:39 44.0 °F 41.0 °F 30.2 in SE 7 mph 11 mph 90% 0.000 in
10:44 44.0 °F 41.0 °F 30.2 in SE 4 mph 5 mph 90% 0.000 in
10:49 44.0 °F 41.0 °F 30.2 in SE 7 mph 8 mph 91% 0.000 in
10:54 44.0 °F 41.0 °F 30.2 in ESE 6 mph 9 mph 90% 0.000 in
10:59 44.0 °F 41.0 °F 30.2 in ESE 5 mph 8 mph 91% 0.000 in
11:04 44.0 °F 42.0 °F 30.2 in ESE 2 mph 8 mph 91% 0.000 in
11:09 44.0 °F 42.0 °F 30.2 in SE 6 mph 7 mph 91% 0.000 in
11:14 44.0 °F 42.0 °F 30.2 in ESE 6 mph 7 mph 91% 0.000 in
11:19 44.0 °F 42.0 °F 30.2 in SE 6 mph 10 mph 90% 0.000 in
11:24 45.0 °F 42.0 °F 30.2 in SE 6 mph 6 mph 90% 0.000 in
11:29 45.0 °F 42.0 °F 30.2 in ESE 5 mph 7 mph 90% 0.000 in
11:34 45.0 °F 42.0 °F 30.2 in SE 7 mph 7 mph 90% 0.000 in
11:39 46.0 °F 43.0 °F 30.2 in ESE 5 mph 6 mph 90% 0.000 in
11:44 46.0 °F 43.0 °F 30.2 in ESE 5 mph 6 mph 90% 0.000 in
11:49 46.0 °F 43.0 °F 30.2 in SE 4 mph 8 mph 89% 0.000 in
11:54 46.0 °F 43.0 °F 30.2 in ESE 4 mph 7 mph 89% 0.000 in
11:59 47.0 °F 43.0 °F 30.2 in SE 7 mph 7 mph 88% 0.000 in
12:04 47.0 °F 43.0 °F 30.2 in ESE 5 mph 8 mph 88% 0.000 in
12:09 46.0 °F 43.0 °F 30.2 in ESE 4 mph 8 mph 88% 0.000 in
12:14 46.0 °F 43.0 °F 30.2 in ESE 6 mph 7 mph 88% 0.000 in
12:19 46.0 °F 43.0 °F 30.2 in SE 5 mph 8 mph 89% 0.000 in
12:24 46.0 °F 44.0 °F 30.2 in ESE 5 mph 6 mph 90% 0.000 in
12:29 47.0 °F 44.0 °F 30.2 in ESE 7 mph 9 mph 90% 0.000 in
12:34 47.0 °F 44.0 °F 30.2 in SE 4 mph 7 mph 90% 0.000 in
12:39 47.0 °F 44.0 °F 30.2 in SE 5 mph 8 mph 90% 0.000 in
12:44 47.0 °F 44.0 °F 30.2 in ESE 4 mph 6 mph 89% 0.000 in
12:49 47.0 °F 44.0 °F 30.2 in SE 7 mph 7 mph 89% 0.000 in
12:54 47.0 °F 44.0 °F 30.2 in ENE 2 mph 5 mph 89% 0.000 in
12:59 47.0 °F 44.0 °F 30.2 in SE 2 mph 4 mph 89% 0.000 in
13:04 47.0 °F 44.0 °F 30.2 in ESE 5 mph 5 mph 89% 0.000 in
13:09 47.0 °F 44.0 °F 30.1 in ESE 7 mph 7 mph 89% 0.000 in
13:14 47.0 °F 44.0 °F 30.1 in SE 8 mph 8 mph 90% 0.000 in
13:19 47.0 °F 44.0 °F 30.1 in ESE 4 mph 7 mph 90% 0.000 in
13:24 47.0 °F 44.0 °F 30.1 in ESE 5 mph 5 mph 90% 0.000 in
13:29 47.0 °F 44.0 °F 30.1 in ESE 4 mph 5 mph 90% 0.000 in
13:34 47.0 °F 44.0 °F 30.1 in ESE 2 mph 5 mph 90% 0.000 in
13:39 47.0 °F 44.0 °F 30.1 in ESE 4 mph 6 mph 90% 0.000 in
13:44 47.0 °F 44.0 °F 30.1 in ESE 4 mph 5 mph 91% 0.000 in
13:49 47.0 °F 44.0 °F 30.1 in ESE 4 mph 4 mph 91% 0.000 in
13:54 47.0 °F 44.0 °F 30.1 in SE 4 mph 5 mph 91% 0.000 in
13:59 47.0 °F 44.0 °F 30.1 in SE 1 mph 5 mph 91% 0.000 in
14:04 47.0 °F 45.0 °F 30.1 in SE 1 mph 2 mph 92% 0.000 in
14:09 47.0 °F 44.0 °F 30.1 in SE 2 mph 4 mph 91% 0.000 in
14:14 47.0 °F 45.0 °F 30.1 in SE 4 mph 4 mph 92% 0.000 in
14:19 48.0 °F 45.0 °F 30.1 in SE 7 mph 8 mph 92% 0.000 in
14:24 48.0 °F 46.0 °F 30.1 in SE 1 mph 2 mph 92% 0.000 in
14:29 48.0 °F 45.0 °F 30.1 in East 4 mph 5 mph 91% 0.000 in
14:34 48.0 °F 45.0 °F 30.1 in East 1 mph 2 mph 91% 0.000 in
14:39 48.0 °F 45.0 °F 30.1 in Calm   4 mph 91% 0.000 in
14:44 48.0 °F 45.0 °F 30.1 in ESE 2 mph 4 mph 91% 0.000 in
14:49 48.0 °F 45.0 °F 30.1 in SE 2 mph 4 mph 91% 0.000 in
14:54 48.0 °F 45.0 °F 30.1 in SE 4 mph 4 mph 92% 0.000 in
14:59 48.0 °F 45.0 °F 30.1 in ESE 5 mph 5 mph 92% 0.000 in
15:04 48.0 °F 46.0 °F 30.1 in SE 4 mph 5 mph 93% 0.000 in
15:09 48.0 °F 46.0 °F 30.1 in ESE 1 mph 5 mph 94% 0.000 in
15:14 48.0 °F 46.0 °F 30.1 in Calm   1 mph 95% 0.010 in
15:19 48.0 °F 46.0 °F 30.1 in SE 2 mph 4 mph 95% 0.010 in
15:24 48.0 °F 47.0 °F 30.1 in SE 7 mph 7 mph 95% 0.010 in
15:29 48.0 °F 47.0 °F 30.1 in ESE 4 mph 5 mph 95% 0.010 in
15:34 48.0 °F 47.0 °F 30.1 in SE 6 mph 6 mph 96% 0.030 in
15:39 49.0 °F 48.0 °F 30.1 in SE 2 mph 6 mph 96% 0.030 in
15:44 49.0 °F 48.0 °F 30.1 in ESE 1 mph 4 mph 96% 0.030 in
15:49 48.0 °F 47.0 °F 30.1 in WNW 5 mph 6 mph 96% 0.030 in
15:54 48.0 °F 47.0 °F 30.2 in WNW 4 mph 6 mph 96% 0.040 in
15:59 48.0 °F 47.0 °F 30.2 in NNE 1 mph 4 mph 96% 0.150 in
16:04 48.0 °F 47.0 °F 30.1 in NW 2 mph 2 mph 96% 0.170 in
16:09 48.0 °F 47.0 °F 30.1 in Calm     97% 0.190 in
16:14 48.0 °F 47.0 °F 30.1 in Calm     97% 0.190 in
16:19 48.0 °F 47.0 °F 30.1 in Calm   1 mph 100% 0.200 in
16:24 47.0 °F 46.0 °F 30.1 in East 1 mph 2 mph 97% 0.210 in
16:29 47.0 °F 46.0 °F 30.1 in Calm     97% 0.220 in
16:34 47.0 °F 46.0 °F 30.1 in East 1 mph 2 mph 97% 0.220 in
16:39 47.0 °F 46.0 °F 30.1 in East 2 mph 3 mph 97% 0.210 in
16:44 47.0 °F 47.0 °F 30.1 in East 2 mph 3 mph 98% 0.270 in
16:49 48.0 °F 47.0 °F 30.1 in East 1 mph 4 mph 98% 0.380 in
16:54 48.0 °F 47.0 °F 30.1 in Calm   1 mph 98% 0.400 in
16:59 48.0 °F 47.0 °F 30.1 in NE 1 mph 2 mph 98% 0.370 in
17:04 48.0 °F 47.0 °F 30.1 in North 5 mph 5 mph 98% 0.280 in
17:09 48.0 °F 47.0 °F 30.1 in NE 2 mph 3 mph 98% 0.310 in
17:14 48.0 °F 47.0 °F 30.1 in East 1 mph 4 mph 98% 0.350 in
17:19 48.0 °F 47.0 °F 30.1 in SE 1 mph 5 mph 98% 0.350 in
17:24 48.0 °F 47.0 °F 30.1 in Calm   2 mph 98% 0.330 in
17:29 48.0 °F 47.0 °F 30.1 in SE 6 mph 6 mph 98% 0.320 in
17:34 48.0 °F 47.0 °F 30.1 in SE 1 mph 2 mph 98% 0.320 in
17:39 48.0 °F 47.0 °F 30.1 in SE 2 mph 5 mph 98% 0.320 in
17:44 48.0 °F 47.0 °F 30.1 in SE 4 mph 4 mph 98% 0.310 in
17:49 48.0 °F 47.0 °F 30.1 in SE 4 mph 4 mph 98% 0.220 in
17:54 48.0 °F 47.0 °F 30.1 in SE 2 mph 7 mph 98% 0.130 in
17:59 48.0 °F 48.0 °F 30.1 in ESE 4 mph 6 mph 98% 0.130 in
18:04 49.0 °F 48.0 °F 30.1 in SSW 4 mph 4 mph 98% 0.140 in
18:09 49.0 °F 49.0 °F 30.1 in Calm   4 mph 99% 0.140 in
18:14 49.0 °F 49.0 °F 30.1 in Calm     99% 0.050 in
18:19 49.0 °F 48.0 °F 30.0 in ENE 2 mph 4 mph 98% 0.050 in
18:24 49.0 °F 48.0 °F 30.0 in Calm   2 mph 98% 0.050 in
18:29 49.0 °F 49.0 °F 30.1 in NNW 3 mph 4 mph 99% 0.050 in
18:34 49.0 °F 48.0 °F 30.1 in NW 7 mph 7 mph 98% 0.040 in
18:39 49.0 °F 48.0 °F 30.1 in WNW 4 mph 4 mph 98% 0.040 in
18:44 49.0 °F 49.0 °F 30.1 in NW 4 mph 7 mph 98% 0.050 in
18:49 50.0 °F 49.0 °F 30.1 in NNW 3 mph 6 mph 99% 0.060 in
18:54 50.0 °F 50.0 °F 30.1 in WNW 1 mph 5 mph 99% 0.060 in
18:59 50.0 °F 50.0 °F 30.1 in Calm     99% 0.060 in
19:04 50.0 °F 50.0 °F 30.1 in Calm     99% 0.070 in
19:09 50.0 °F 50.0 °F 30.1 in Calm     99% 0.060 in
19:14 50.0 °F 50.0 °F 30.1 in Calm     99% 0.050 in
19:19 50.0 °F 50.0 °F 30.1 in Calm   1 mph 99% 0.060 in
19:24 50.0 °F 50.0 °F 30.1 in NE 1 mph 2 mph 99% 0.070 in
19:29 50.0 °F 50.0 °F 30.1 in Calm   1 mph 99% 0.120 in
19:34 50.0 °F 50.0 °F 30.1 in North 2 mph 2 mph 99% 0.270 in
19:39 50.0 °F 50.0 °F 30.1 in Calm   1 mph 99% 0.430 in
19:44 50.0 °F 49.0 °F 30.1 in Calm   1 mph 98% 0.560 in
19:49 50.0 °F 49.0 °F 30.1 in SE 2 mph 2 mph 98% 0.670 in
19:54 49.0 °F 48.0 °F 30.1 in SSE 4 mph 4 mph 98% 0.690 in
19:59 49.0 °F 48.0 °F 30.1 in SE 1 mph 2 mph 98% 0.710 in
20:04 48.0 °F 48.0 °F 30.1 in Calm     98% 0.710 in
20:09 48.0 °F 48.0 °F 30.1 in Calm     98% 0.720 in
20:14 48.0 °F 48.0 °F 30.1 in SE 1 mph 1 mph 98% 0.720 in
20:19 48.0 °F 48.0 °F 30.1 in SE 1 mph 1 mph 98% 0.720 in
20:24 48.0 °F 48.0 °F 30.1 in SE 1 mph 2 mph 98% 0.700 in
20:29 48.0 °F 48.0 °F 30.1 in Calm     98% 0.690 in
20:34 48.0 °F 48.0 °F 30.1 in Calm     98% 0.620 in
20:39 48.0 °F 48.0 °F 30.1 in Calm     99% 0.500 in
20:44 48.0 °F 48.0 °F 30.1 in Calm     99% 0.310 in
20:49 48.0 °F 48.0 °F 30.1 in Calm     99% 0.180 in
20:54 48.0 °F 48.0 °F 30.1 in Calm     99% 0.090 in
20:59 48.0 °F 48.0 °F 30.1 in Calm   1 mph 99% 0.060 in
21:04 48.0 °F 48.0 °F 30.1 in Calm     99% 0.050 in
21:09 48.0 °F 48.0 °F 30.1 in SE 1 mph 1 mph 99% 0.040 in
21:14 48.0 °F 48.0 °F 30.1 in SE 2 mph 2 mph 99% 0.050 in
21:19 48.0 °F 48.0 °F 30.1 in SE 1 mph 2 mph 98% 0.050 in
21:24 48.0 °F 48.0 °F 30.1 in Calm     99% 0.050 in
21:29 48.0 °F 48.0 °F 30.1 in Calm   2 mph 99% 0.050 in
21:34 48.0 °F 48.0 °F 30.1 in Calm     99% 0.060 in
21:39 48.0 °F 48.0 °F 30.1 in Calm     99% 0.080 in
21:44 48.0 °F 48.0 °F 30.1 in Calm     99% 0.080 in
21:49 48.0 °F 48.0 °F 30.1 in Calm     99% 0.090 in
21:54 48.0 °F 48.0 °F 30.1 in Calm     99% 0.100 in
21:59 48.0 °F 48.0 °F 30.1 in Calm   1 mph 99% 0.100 in
22:04 48.0 °F 48.0 °F 30.1 in Calm     99% 0.110 in
22:09 48.0 °F 48.0 °F 30.1 in Calm     99% 0.110 in
22:14 48.0 °F 48.0 °F 30.1 in Calm     99% 0.110 in
22:19 49.0 °F 48.0 °F 30.1 in SE 1 mph 1 mph 99% 0.100 in
22:24 49.0 °F 49.0 °F 30.1 in Calm   1 mph 99% 0.110 in
22:29 49.0 °F 49.0 °F 30.1 in Calm   1 mph 99% 0.110 in
22:34 49.0 °F 49.0 °F 30.1 in Calm     99% 0.110 in
22:39 49.0 °F 49.0 °F 30.1 in Calm     99% 0.090 in
22:44 49.0 °F 49.0 °F 30.1 in Calm     99% 0.070 in
22:49 49.0 °F 49.0 °F 30.1 in Calm     99% 0.060 in
22:54 49.0 °F 49.0 °F 30.1 in Calm     99% 0.050 in
22:59 49.0 °F 49.0 °F 30.1 in Calm     99% 0.040 in
23:04 49.0 °F 49.0 °F 30.1 in Calm     99% 0.040 in
23:09 49.0 °F 49.0 °F 30.1 in Calm     99% 0.030 in
23:14 49.0 °F 49.0 °F 30.1 in Calm   1 mph 99% 0.030 in
23:19 49.0 °F 49.0 °F 30.1 in Calm     99% 0.030 in
23:24 49.0 °F 49.0 °F 30.1 in Calm     99% 0.030 in
23:29 49.0 °F 49.0 °F 30.1 in Calm     99% 0.020 in
23:34 49.0 °F 49.0 °F 30.1 in Calm     99% 0.030 in
23:39 49.0 °F 49.0 °F 30.1 in Calm     99% 0.020 in
23:44 49.0 °F 49.0 °F 30.1 in SE 1 mph 2 mph 99% 0.030 in
23:49 50.0 °F 50.0 °F 30.1 in SE 1 mph 2 mph 99% 0.030 in
23:54 50.0 °F 50.0 °F 30.1 in Calm     99% 0.030 in
23:59 50.0 °F 50.0 °F 30.1 in Calm     99% 0.030 in
East Ellijay Weather
Compliments of Weather Underground - 2 mb